Kewanee, Missouri
Current Conditions -  °F | °C
As of 5:55 PM on Sunday 23 Nov 2014 (Local Time) from KCIR Reporting Station
Moderate Rain Moderate Rain  
Wind Chill: 57°   Ceiling: 2700
Heat Index: 57°   Visibility: 4mi
Dew Point: 54°   Wind: 3mph
Humidity: 92%   Direction: 260°W
Pressure: 29.31"   Gusts: NA
Location:  36.67°N, 89.57°W
Report Text: KCIR 232355Z AUTO 26003KT 4SM RA SCT001 BKN027 OVC037 14/12 A2931 RMK AO2 P0023 60104 T01370124 10147 20137
Loading
Personal Weather Stations






























Interactive Weather Map New forecast layout! Learn more

10-Day Weather Forecast

Advertisements
Track Severe Weather on mobile